createdAt,value
2019-06-07T00:00:54.532Z,100.00
2019-06-07T00:03:29.510Z,100.00
2019-06-07T00:05:53.474Z,100.00
2019-06-07T00:08:27.853Z,100.00
2019-06-07T00:10:52.366Z,100.00
2019-06-07T00:13:20.987Z,100.00
2019-06-07T00:15:49.626Z,100.00
2019-06-07T00:18:25.277Z,100.00
2019-06-07T00:20:48.677Z,100.00
2019-06-07T00:23:22.097Z,100.00
2019-06-07T00:25:47.697Z,100.00
2019-06-07T00:28:17.309Z,100.00
2019-06-07T00:30:52.028Z,100.00
2019-06-07T00:33:20.680Z,100.00
2019-06-07T00:35:47.526Z,100.00
2019-06-07T00:38:18.849Z,100.00
2019-06-07T00:40:46.583Z,100.00
2019-06-07T00:43:17.620Z,100.00
2019-06-07T00:46:05.231Z,100.00
2019-06-07T00:48:33.907Z,100.00
2019-06-07T00:51:02.544Z,100.00
2019-06-07T00:54:12.291Z,100.00
2019-06-07T00:56:41.385Z,100.00
2019-06-07T00:59:49.922Z,100.00
2019-06-07T01:02:21.420Z,100.00
2019-06-07T01:04:48.940Z,100.00
2019-06-07T01:07:18.755Z,100.00
2019-06-07T01:09:47.833Z,100.00
2019-06-07T01:12:18.553Z,100.00
2019-06-07T01:14:46.725Z,100.00
2019-06-07T01:17:49.753Z,100.00
2019-06-07T01:20:44.827Z,100.00
2019-06-07T01:23:56.601Z,100.00
2019-06-07T01:25:43.879Z,100.00
2019-06-07T01:28:12.576Z,100.00
2019-06-07T01:30:41.147Z,100.00
2019-06-07T01:33:09.806Z,99.73
2019-06-07T01:35:38.363Z,99.76
2019-06-07T01:38:07.027Z,99.93
2019-06-07T01:40:35.668Z,100.00
2019-06-07T01:43:04.340Z,100.00
2019-06-07T01:45:32.967Z,100.00
2019-06-07T01:48:01.537Z,100.00
2019-06-07T01:50:49.475Z,100.00
2019-06-07T01:53:21.672Z,100.00
2019-06-07T01:55:48.447Z,100.00
2019-06-07T01:58:17.164Z,100.00
2019-06-07T02:01:26.735Z,100.00
2019-06-07T02:03:56.037Z,100.00
2019-06-07T02:06:27.954Z,100.00
2019-06-07T02:08:55.169Z,100.00
2019-06-07T02:11:24.335Z,100.00
2019-06-07T02:13:54.110Z,100.00
2019-06-07T02:16:25.396Z,100.00
2019-06-07T02:19:01.775Z,100.00
2019-06-07T02:21:25.995Z,100.00
2019-06-07T02:23:53.727Z,100.00
2019-06-07T02:26:22.971Z,100.00
2019-06-07T02:28:52.723Z,100.00
2019-06-07T02:31:22.315Z,100.00
2019-06-07T02:33:51.707Z,100.00
2019-06-07T02:36:24.739Z,100.00
2019-06-07T02:38:50.744Z,100.00
2019-06-07T02:41:19.392Z,100.00
2019-06-07T02:43:47.925Z,100.00
2019-06-07T02:46:45.849Z,100.00
2019-06-07T02:49:06.023Z,100.00
2019-06-07T02:51:41.170Z,100.00
2019-06-07T02:54:44.869Z,100.00
2019-06-07T02:57:13.523Z,100.00
2019-06-07T03:00:05.573Z,100.00
2019-06-07T03:02:12.579Z,100.00
2019-06-07T03:07:49.693Z,100.00
2019-06-07T03:10:18.377Z,100.00
2019-06-07T03:13:28.893Z,100.00
2019-06-07T03:18:51.820Z,100.00
2019-06-07T03:25:08.756Z,100.00
2019-06-07T03:28:17.170Z,100.00
2019-06-07T03:31:00.654Z,100.00
2019-06-07T03:33:16.114Z,100.00
2019-06-07T03:35:44.783Z,100.00
2019-06-07T03:38:13.368Z,100.00
2019-06-07T03:40:41.893Z,100.00
2019-06-07T03:43:10.551Z,100.00
2019-06-07T03:45:41.549Z,100.00
2019-06-07T03:48:09.481Z,99.99
2019-06-07T03:50:41.446Z,99.87
2019-06-07T03:53:08.460Z,100.00
2019-06-07T03:55:39.055Z,100.00
2019-06-07T04:00:42.628Z,99.71
2019-06-07T04:03:08.159Z,98.80
2019-06-07T04:05:42.797Z,97.13
2019-06-07T04:08:07.136Z,96.62
2019-06-07T04:10:54.950Z,96.71
2019-06-07T04:13:06.170Z,95.93
2019-06-07T04:15:39.220Z,95.53
2019-06-07T04:18:45.010Z,96.05
2019-06-07T04:21:13.580Z,95.37
2019-06-07T04:23:45.699Z,95.48
2019-06-07T04:26:12.584Z,95.72
2019-06-07T04:29:30.792Z,95.66
2019-06-07T04:31:11.671Z,96.42
2019-06-07T04:33:43.519Z,96.64
2019-06-07T04:36:45.579Z,96.93
2019-06-07T04:39:45.071Z,96.93
2019-06-07T04:42:34.994Z,96.55
2019-06-07T04:45:33.701Z,97.16
2019-06-07T04:48:14.873Z,97.11
2019-06-07T04:50:44.270Z,97.12
2019-06-07T04:53:14.246Z,96.33
2019-06-07T04:55:43.378Z,97.01
2019-06-07T04:58:31.719Z,97.04
2019-06-07T05:01:03.477Z,96.42
2019-06-07T05:03:50.384Z,96.12
2019-06-07T05:06:19.064Z,95.11
2019-06-07T05:09:06.989Z,95.02
2019-06-07T05:11:54.965Z,94.20
2019-06-07T05:14:23.531Z,94.87
2019-06-07T05:16:52.143Z,95.82
2019-06-07T05:19:20.791Z,95.03
2019-06-07T05:22:03.452Z,95.44
2019-06-07T05:24:19.852Z,95.65
2019-06-07T05:26:48.526Z,95.33
2019-06-07T05:29:17.269Z,94.60
2019-06-07T05:34:46.868Z,94.30
2019-06-07T05:37:12.273Z,95.29
2019-06-07T05:39:45.538Z,95.14
2019-06-07T05:42:12.100Z,93.67
2019-06-07T05:44:45.176Z,93.21
2019-06-07T05:47:12.723Z,92.98
2019-06-07T05:49:44.553Z,92.47
2019-06-07T05:52:11.656Z,93.17
2019-06-07T05:54:42.382Z,92.86
2019-06-07T05:57:10.614Z,92.09
2019-06-07T05:59:42.129Z,91.09
2019-06-07T06:02:22.178Z,89.97
2019-06-07T06:04:45.190Z,90.21
2019-06-07T06:07:10.323Z,89.41
2019-06-07T06:09:40.616Z,89.36
2019-06-07T06:12:09.284Z,87.90
2019-06-07T06:14:40.970Z,88.38
2019-06-07T06:17:08.331Z,88.21
2019-06-07T06:19:39.730Z,87.49
2019-06-07T06:22:07.378Z,87.30
2019-06-07T06:24:37.282Z,86.79
2019-06-07T06:30:01.025Z,86.52
2019-06-07T06:32:41.685Z,85.28
2019-06-07T06:35:00.037Z,85.68
2019-06-07T06:37:28.655Z,86.64
2019-06-07T06:39:57.289Z,85.54
2019-06-07T06:42:25.934Z,86.45
2019-06-07T06:44:54.597Z,84.36
2019-06-07T06:47:23.188Z,85.26
2019-06-07T06:49:54.373Z,83.71
2019-06-07T06:52:22.257Z,81.92
2019-06-07T06:54:59.707Z,78.32
2019-06-07T06:57:21.245Z,75.80
2019-06-07T06:59:52.507Z,69.67
2019-06-07T07:02:20.212Z,67.59
2019-06-07T07:04:52.232Z,63.75
2019-06-07T07:07:59.012Z,57.76
2019-06-07T07:10:51.080Z,54.61
2019-06-07T07:13:17.629Z,51.85
2019-06-07T07:15:50.028Z,50.39
2019-06-07T07:18:16.671Z,47.73
2019-06-07T07:20:47.534Z,48.25
2019-06-07T07:23:15.590Z,46.28
2019-06-07T07:25:49.318Z,45.49
2019-06-07T07:28:14.663Z,44.14
2019-06-07T07:31:02.602Z,41.11
2019-06-07T07:36:38.296Z,41.52
2019-06-07T07:39:00.463Z,43.07
2019-06-07T07:41:21.759Z,40.53
2019-06-07T07:43:59.505Z,39.46
2019-06-07T07:46:29.194Z,36.60
2019-06-07T07:48:54.206Z,36.88
2019-06-07T07:51:21.586Z,37.58
2019-06-07T07:54:02.156Z,38.11
2019-06-07T07:56:20.671Z,39.22
2019-06-07T07:58:51.159Z,37.10
2019-06-07T08:01:19.717Z,38.97
2019-06-07T08:03:48.332Z,39.35
2019-06-07T08:06:16.963Z,37.72
2019-06-07T08:08:46.346Z,38.47
2019-06-07T08:11:16.013Z,38.96
2019-06-07T08:13:45.683Z,38.88
2019-06-07T08:16:18.549Z,39.93
2019-06-07T08:18:45.513Z,40.29
2019-06-07T08:21:24.721Z,40.84
2019-06-07T08:23:44.554Z,39.63
2019-06-07T08:26:13.217Z,40.50
2019-06-07T08:28:41.795Z,45.04
2019-06-07T08:31:10.473Z,45.33
2019-06-07T08:33:39.110Z,44.64
2019-06-07T08:36:20.025Z,44.22
2019-06-07T08:38:47.547Z,46.92
2019-06-07T08:41:11.943Z,48.21
2019-06-07T08:43:38.870Z,48.45
2019-06-07T08:46:08.147Z,49.54
2019-06-07T08:48:37.840Z,52.02
2019-06-07T08:51:08.415Z,50.65
2019-06-07T08:53:36.877Z,51.28
2019-06-07T08:56:10.188Z,51.37
2019-06-07T08:58:36.028Z,50.36
2019-06-07T09:01:08.444Z,53.44
2019-06-07T09:03:35.147Z,52.02
2019-06-07T09:06:16.392Z,51.14
2019-06-07T09:08:34.182Z,52.67
2019-06-07T09:11:10.200Z,51.76
2019-06-07T09:13:33.398Z,52.87
2019-06-07T09:16:08.262Z,52.54
2019-06-07T09:18:42.778Z,53.79
2019-06-07T09:21:09.096Z,52.28
2019-06-07T09:23:34.711Z,52.40
2019-06-07T09:26:10.540Z,52.13
2019-06-07T09:29:13.606Z,49.80
2019-06-07T09:31:52.963Z,51.84
2019-06-07T09:34:15.100Z,51.45
2019-06-07T09:36:43.062Z,49.39
2019-06-07T09:39:12.629Z,52.02
2019-06-07T09:41:49.508Z,50.63
2019-06-07T09:44:23.960Z,50.01
2019-06-07T09:46:42.786Z,50.68
2019-06-07T09:52:10.352Z,51.05
2019-06-07T09:55:06.185Z,50.16
2019-06-07T09:57:16.478Z,50.04
2019-06-07T09:59:37.757Z,49.87
2019-06-07T10:02:09.584Z,49.98
2019-06-07T10:04:36.807Z,51.07
2019-06-07T10:07:31.787Z,49.48
2019-06-07T10:10:12.672Z,48.82
2019-06-07T10:12:25.459Z,49.07
2019-06-07T10:14:54.107Z,49.10
2019-06-07T10:17:22.795Z,48.81
2019-06-07T10:19:51.448Z,49.28
2019-06-07T10:22:39.403Z,48.41
2019-06-07T10:28:16.209Z,47.92
2019-06-07T10:30:44.790Z,47.36
2019-06-07T10:33:32.652Z,49.09
2019-06-07T10:36:02.479Z,47.69
2019-06-07T10:38:31.698Z,47.74
2019-06-07T10:41:00.757Z,48.20
2019-06-07T10:43:30.775Z,46.12
2019-06-07T10:49:08.014Z,47.56
2019-06-07T10:51:37.984Z,47.62
2019-06-07T10:54:22.979Z,44.94
2019-06-07T10:56:37.078Z,46.80
2019-06-07T10:59:06.986Z,46.37
2019-06-07T11:01:36.091Z,46.15
2019-06-07T11:04:05.748Z,45.31
2019-06-07T11:06:35.156Z,45.16
2019-06-07T11:09:23.071Z,45.06
2019-06-07T11:11:51.689Z,45.17
2019-06-07T11:14:20.347Z,47.04
2019-06-07T11:16:48.941Z,45.24
2019-06-07T11:19:19.606Z,44.04
2019-06-07T11:21:47.985Z,42.78
2019-06-07T11:24:21.862Z,45.51
2019-06-07T11:29:55.147Z,43.15
2019-06-07T11:32:23.719Z,44.61
2019-06-07T11:34:52.292Z,44.25
2019-06-07T11:37:20.954Z,45.45
2019-06-07T11:39:49.645Z,44.91
2019-06-07T11:42:20.031Z,44.10
2019-06-07T11:44:56.769Z,41.40
2019-06-07T11:47:59.942Z,42.77
2019-06-07T11:50:29.228Z,44.44
2019-06-07T11:52:57.953Z,40.84
2019-06-07T11:55:26.636Z,43.70
2019-06-07T11:57:55.318Z,42.04
2019-06-07T12:01:03.777Z,42.57
2019-06-07T12:03:32.503Z,42.00
2019-06-07T12:06:01.148Z,40.11
2019-06-07T12:08:29.830Z,41.87
2019-06-07T12:10:58.474Z,40.35
2019-06-07T12:13:27.216Z,40.35
2019-06-07T12:15:55.883Z,39.85
2019-06-07T12:18:43.832Z,38.91
2019-06-07T12:21:13.663Z,41.02
2019-06-07T12:23:43.036Z,39.41
2019-06-07T12:26:12.301Z,39.45
2019-06-07T12:28:42.056Z,39.32
2019-06-07T12:31:10.935Z,40.39
2019-06-07T12:33:39.542Z,41.16
2019-06-07T12:36:08.235Z,41.83
2019-06-07T12:38:36.907Z,40.29
2019-06-07T12:41:24.816Z,41.26
2019-06-07T12:43:53.420Z,41.26
2019-06-07T12:46:27.966Z,40.08
2019-06-07T12:48:52.633Z,39.27
2019-06-07T12:51:40.775Z,39.16
2019-06-07T12:54:09.715Z,39.16
2019-06-07T12:56:57.796Z,38.13
2019-06-07T12:59:26.812Z,38.13
2019-06-07T13:01:55.656Z,38.89
2019-06-07T13:04:24.988Z,37.76
2019-06-07T13:06:55.150Z,37.03
2019-06-07T13:09:24.207Z,38.68
2019-06-07T13:11:52.843Z,37.79
2019-06-07T13:14:22.109Z,38.91
2019-06-07T13:16:51.929Z,38.45
2019-06-07T13:19:20.631Z,37.19
2019-06-07T13:21:49.282Z,39.43
2019-06-07T13:24:18.911Z,38.83
2019-06-07T13:26:48.384Z,38.27
2019-06-07T13:29:18.634Z,36.30
2019-06-07T13:31:47.387Z,37.46
2019-06-07T13:34:16.308Z,37.64
2019-06-07T13:36:46.443Z,35.49
2019-06-07T13:39:15.115Z,36.41
2019-06-07T13:41:43.767Z,36.46
2019-06-07T13:44:12.440Z,36.84
2019-06-07T13:46:41.075Z,37.38
2019-06-07T13:49:09.745Z,36.41
2019-06-07T13:51:38.428Z,36.77
2019-06-07T13:54:07.163Z,36.36
2019-06-07T13:56:35.805Z,35.48
2019-06-07T14:01:59.370Z,34.46
2019-06-07T14:04:29.133Z,34.02
2019-06-07T14:06:58.420Z,34.78
2019-06-07T14:09:27.641Z,35.04
2019-06-07T14:11:57.487Z,33.46
2019-06-07T14:14:27.442Z,35.23
2019-06-07T14:16:56.447Z,35.07
2019-06-07T14:19:26.411Z,35.33
2019-06-07T14:21:55.444Z,35.06
2019-06-07T14:24:25.196Z,33.10
2019-06-07T14:27:13.467Z,32.62
2019-06-07T14:29:42.150Z,33.49
2019-06-07T14:32:10.804Z,34.90
2019-06-07T14:34:39.492Z,34.11
2019-06-07T14:37:08.187Z,33.47
2019-06-07T14:39:36.846Z,32.57
2019-06-07T14:42:09.895Z,33.75
2019-06-07T14:44:35.907Z,32.37
2019-06-07T14:47:04.540Z,34.01
2019-06-07T14:49:34.628Z,32.80
2019-06-07T14:52:03.947Z,32.69
2019-06-07T14:54:36.999Z,33.75
2019-06-07T14:57:04.448Z,33.15
2019-06-07T14:59:34.774Z,33.42
2019-06-07T15:02:03.489Z,31.91
2019-06-07T15:04:32.873Z,33.78
2019-06-07T15:07:02.546Z,33.03
2019-06-07T15:09:31.232Z,33.82
2019-06-07T15:11:59.877Z,35.21
2019-06-07T15:14:29.312Z,33.38
2019-06-07T15:16:58.983Z,32.88
2019-06-07T15:19:28.874Z,33.12
2019-06-07T15:21:58.023Z,32.96
2019-06-07T15:27:02.187Z,32.97
2019-06-07T15:29:31.814Z,33.83
2019-06-07T15:32:01.211Z,34.66
2019-06-07T15:34:30.512Z,34.41
2019-06-07T15:37:00.368Z,35.23
2019-06-07T15:39:29.014Z,34.20
2019-06-07T15:41:57.691Z,35.12
2019-06-07T15:44:26.324Z,35.02
2019-06-07T15:46:55.007Z,33.83
2019-06-07T15:49:23.649Z,35.17
2019-06-07T15:51:52.294Z,34.91
2019-06-07T15:54:20.990Z,34.28
2019-06-07T15:56:49.594Z,34.70
2019-06-07T15:59:18.223Z,35.69
2019-06-07T16:01:46.899Z,35.28
2019-06-07T16:04:15.484Z,35.44
2019-06-07T16:06:44.094Z,35.08
2019-06-07T16:09:12.714Z,34.49
2019-06-07T16:11:42.069Z,35.23
2019-06-07T16:14:11.745Z,34.52
2019-06-07T16:16:41.375Z,34.31
2019-06-07T16:19:10.690Z,36.42
2019-06-07T16:21:39.525Z,36.48
2019-06-07T16:24:08.165Z,35.17
2019-06-07T16:26:38.135Z,35.37
2019-06-07T16:29:07.227Z,35.79
2019-06-07T16:31:36.577Z,35.79
2019-06-07T16:34:06.266Z,36.20
2019-06-07T16:36:36.106Z,36.32
2019-06-07T16:39:45.124Z,36.18
2019-06-07T16:42:13.766Z,36.10
2019-06-07T16:44:42.638Z,36.20
2019-06-07T16:47:11.299Z,36.06
2019-06-07T16:49:40.739Z,36.81
2019-06-07T16:52:10.371Z,36.63
2019-06-07T16:54:39.361Z,36.93
2019-06-07T16:57:09.455Z,37.24
2019-06-07T16:59:38.793Z,38.30
2019-06-07T17:07:57.789Z,38.93
2019-06-07T17:10:26.485Z,40.09
2019-06-07T17:12:55.287Z,39.93
2019-06-07T17:15:24.087Z,39.76
2019-06-07T17:17:52.700Z,40.44
2019-06-07T17:21:01.196Z,41.25
2019-06-07T17:23:29.817Z,41.80
2019-06-07T17:25:58.567Z,42.20
2019-06-07T17:28:27.255Z,41.14
2019-06-07T17:30:55.940Z,41.17
2019-06-07T17:33:24.555Z,41.46
2019-06-07T17:36:12.587Z,41.91
2019-06-07T17:38:42.454Z,41.89
2019-06-07T17:41:11.660Z,43.41
2019-06-07T17:44:00.553Z,43.54
2019-06-07T17:46:29.972Z,44.31
2019-06-07T17:48:58.613Z,46.37
2019-06-07T17:51:27.188Z,48.96
2019-06-07T17:53:55.871Z,56.94
2019-06-07T17:56:24.422Z,63.24
2019-06-07T17:58:53.063Z,73.85
2019-06-07T18:01:21.739Z,83.51
2019-06-07T18:03:51.263Z,85.92
2019-06-07T18:06:20.805Z,82.18
2019-06-07T18:09:29.281Z,79.72
2019-06-07T18:11:57.927Z,81.83
2019-06-07T18:14:26.716Z,82.00
2019-06-07T18:16:55.365Z,80.81
2019-06-07T18:19:24.041Z,84.33
2019-06-07T18:21:58.604Z,85.92
2019-06-07T18:24:23.073Z,83.59
2019-06-07T18:26:52.960Z,81.95
2019-06-07T18:29:22.132Z,80.32
2019-06-07T18:31:50.795Z,79.75
2019-06-07T18:34:19.825Z,79.92
2019-06-07T18:36:48.969Z,83.50
2019-06-07T18:39:18.796Z,82.23
2019-06-07T18:41:47.468Z,82.50
2019-06-07T18:44:21.643Z,82.08
2019-06-07T18:46:46.506Z,82.26
2019-06-07T18:49:15.126Z,81.85
2019-06-07T18:54:33.025Z,83.54
2019-06-07T18:57:01.672Z,82.21
2019-06-07T18:59:30.364Z,81.59
2019-06-07T19:01:59.019Z,82.68
2019-06-07T19:04:27.694Z,79.79
2019-06-07T19:06:56.463Z,79.06
2019-06-07T19:09:25.029Z,77.48
2019-06-07T19:11:55.160Z,77.09
2019-06-07T19:14:36.279Z,75.46
2019-06-07T19:16:55.561Z,71.37
2019-06-07T19:19:24.916Z,71.12
2019-06-07T19:21:53.982Z,71.78
2019-06-07T19:24:23.862Z,70.28
2019-06-07T19:26:52.583Z,70.14
2019-06-07T19:29:21.159Z,70.29
2019-06-07T19:31:50.781Z,69.68
2019-06-07T19:34:19.451Z,71.35
2019-06-07T19:36:49.157Z,70.39
2019-06-07T19:39:17.919Z,68.13
2019-06-07T19:41:46.561Z,67.61
2019-06-07T19:44:15.235Z,66.64
2019-06-07T19:46:43.892Z,67.58
2019-06-07T19:49:12.582Z,66.29
2019-06-07T19:51:41.260Z,65.97
2019-06-07T19:54:09.890Z,66.85
2019-06-07T19:56:38.566Z,68.22
2019-06-07T19:59:07.237Z,65.03
2019-06-07T20:01:35.927Z,65.48
2019-06-07T20:04:04.637Z,64.48
2019-06-07T20:06:33.266Z,64.75
2019-06-07T20:09:02.971Z,64.04
2019-06-07T20:11:32.355Z,64.33
2019-06-07T20:14:01.029Z,64.07
2019-06-07T20:16:57.124Z,63.09
2019-06-07T20:19:26.900Z,64.67
2019-06-07T20:21:56.795Z,62.81
2019-06-07T20:24:27.487Z,63.83
2019-06-07T20:26:56.311Z,63.39
2019-06-07T20:29:26.456Z,64.33
2019-06-07T20:31:56.249Z,64.37
2019-06-07T20:34:25.764Z,64.07
2019-06-07T20:36:54.442Z,64.11
2019-06-07T20:39:23.094Z,64.19
2019-06-07T20:41:51.680Z,64.64
2019-06-07T20:44:20.293Z,64.83
2019-06-07T20:46:48.964Z,64.83
2019-06-07T20:49:17.471Z,63.98
2019-06-07T20:51:46.164Z,64.61
2019-06-07T20:54:14.847Z,65.32
2019-06-07T20:56:43.516Z,65.63
2019-06-07T20:59:12.324Z,65.32
2019-06-07T21:01:42.836Z,63.96
2019-06-07T21:04:11.612Z,64.09
2019-06-07T21:06:40.534Z,64.31
2019-06-07T21:09:09.715Z,64.52
2019-06-07T21:11:39.626Z,65.43
2019-06-07T21:14:08.299Z,64.98
2019-06-07T21:16:56.200Z,65.73
2019-06-07T21:19:24.846Z,64.65
2019-06-07T21:21:53.459Z,65.88
2019-06-07T21:24:22.358Z,65.42
2019-06-07T21:26:53.348Z,64.91
2019-06-07T21:29:22.421Z,65.76
2019-06-07T21:31:51.965Z,65.66
2019-06-07T21:34:40.633Z,65.28
2019-06-07T21:37:09.946Z,65.23
2019-06-07T21:39:39.728Z,66.18
2019-06-07T21:42:08.336Z,66.28
2019-06-07T21:44:36.901Z,64.97
2019-06-07T21:47:06.445Z,65.15
2019-06-07T21:49:36.402Z,65.06
2019-06-07T21:52:06.439Z,67.03
2019-06-07T21:54:35.806Z,65.41
2019-06-07T21:57:04.753Z,65.68
2019-06-07T21:59:34.178Z,65.41
2019-06-07T22:02:03.279Z,65.33
2019-06-07T22:04:33.304Z,66.19
2019-06-07T22:07:03.208Z,67.25
2019-06-07T22:09:51.687Z,66.60
2019-06-07T22:12:20.379Z,67.25
2019-06-07T22:15:26.787Z,66.75
2019-06-07T22:17:38.925Z,67.48
2019-06-07T22:20:28.357Z,66.95
2019-06-07T22:22:56.960Z,67.00
2019-06-07T22:25:25.675Z,67.24
2019-06-07T22:27:54.377Z,66.77
2019-06-07T22:30:23.067Z,67.17
2019-06-07T22:32:51.993Z,67.39
2019-06-07T22:35:20.632Z,67.29
2019-06-07T22:37:49.254Z,66.61
2019-06-07T22:42:52.454Z,65.46
2019-06-07T22:48:11.378Z,65.39
2019-06-07T22:50:41.299Z,65.89
2019-06-07T22:53:09.973Z,66.80
2019-06-07T22:56:18.476Z,65.99
2019-06-07T22:58:47.117Z,66.62
2019-06-07T23:01:17.105Z,66.75
2019-06-07T23:03:47.044Z,67.82
2019-06-07T23:06:16.713Z,67.04
2019-06-07T23:08:46.040Z,67.57
2019-06-07T23:11:15.175Z,67.19
2019-06-07T23:13:45.096Z,67.42
2019-06-07T23:16:13.672Z,67.96
2019-06-07T23:18:42.275Z,68.77
2019-06-07T23:21:11.653Z,69.77
2019-06-07T23:24:00.525Z,69.02
2019-06-07T23:26:29.135Z,68.76
2019-06-07T23:28:57.695Z,69.71
2019-06-07T23:31:26.297Z,69.79
2019-06-07T23:34:14.722Z,69.50
2019-06-07T23:36:43.801Z,69.68
2019-06-07T23:39:13.126Z,70.09
2019-06-07T23:41:42.844Z,70.46
2019-06-07T23:44:13.216Z,70.20
2019-06-07T23:46:42.478Z,70.99
2019-06-07T23:49:12.042Z,70.39
2019-06-07T23:54:32.040Z,70.82
2019-06-07T23:57:01.220Z,71.87
2019-06-07T23:59:29.899Z,72.80
